CYYE

Fort Nelson Airport

Fort Nelson, British Columbia, Canada
TAF CYYE 170638Z 1707/1719 VRB03KT P6SM FEW012 BKN220 FM171600 09005KT 6SM -SN SCT060 BKN100 OVC220 RMK NXT FCST BY 171300Z
Issued Valid From Valid To
Nov-17 @ 06:38 UTC
(2 hours ago)
Nov-17 @ 07:00 UTC
(2 hours ago)
Nov-17 @ 19:00 UTC
(in 10 hours)
Nov-17 @ 07:00 to Nov-17 @ 16:00
TAF CYYE 170638Z 1707/1719 VRB03KT P6SM FEW012 BKN220
Wind Visibility Clouds
Variable at 3 knots Greater than 6 miles
  • Few at 1,200' AGL
  • Broken at 22,000' AGL
From Nov-17 @ 16:00 to Nov-17 @ 19:00
FM171600 09005KT 6SM -SN SCT060 BKN100 OVC220 RMK NXT FCST BY 171300Z
Wind Visibility Clouds Conditions
90° at 5 knots 6 miles
  • Scattered at 6,000' AGL
  • Broken at 10,000' AGL
  • Overcast at 22,000' AGL
  • Light Snow
TAF CYYE 170638Z 1707/1719 VRB03KT P6SM FEW012 BKN220 FM171600 09005KT 6SM -SN SCT060 BKN100 OVC220 RMK NXT FCST BY 171300Z
Issued Nov-17 @ 06:38 UTC
(2 hours ago)
Valid From Nov-17 @ 07:00 UTC
(2 hours ago)
Valid To Nov-17 @ 19:00 UTC
(in 10 hours)
Nov-17 @ 07:00 - Nov-17 @ 16:00
Wind Visibility
Variable at 3 knots Greater than 6 miles
Clouds
  • Few at 1,200' AGL
  • Broken at 22,000' AGL
From Nov-17 @ 16:00 - Nov-17 @ 19:00
Wind Visibility
90° at 5 knots 6 miles
Clouds
  • Scattered at 6,000' AGL
  • Broken at 10,000' AGL
  • Overcast at 22,000' AGL
Conditions
  • Light Snow